sensor_id;sensor_type;location;lat;lon;timestamp;pressure;altitude;pressure_sealevel;temperature;humidity
29733;BME280;16643;43.158;25.302;2023-03-01T00:01:23;98880.53;;;5.40;100.00
29733;BME280;16643;43.158;25.302;2023-03-01T00:03:49;98879.63;;;5.28;100.00
29733;BME280;16643;43.158;25.302;2023-03-01T00:06:14;98874.44;;;5.23;100.00
29733;BME280;16643;43.158;25.302;2023-03-01T00:08:40;98864.13;;;5.20;100.00
29733;BME280;16643;43.158;25.302;2023-03-01T00:11:07;98854.69;;;5.18;100.00
29733;BME280;16643;43.158;25.302;2023-03-01T00:13:33;98857.22;;;5.11;100.00
29733;BME280;16643;43.158;25.302;2023-03-01T00:16:01;98855.47;;;5.00;100.00
29733;BME280;16643;43.158;25.302;2023-03-01T00:18:26;98852.06;;;5.04;100.00
29733;BME280;16643;43.158;25.302;2023-03-01T00:20:52;98855.47;;;5.01;100.00
29733;BME280;16643;43.158;25.302;2023-03-01T00:23:18;98849.44;;;4.93;100.00
29733;BME280;16643;43.158;25.302;2023-03-01T00:25:43;98847.72;;;4.92;100.00
29733;BME280;16643;43.158;25.302;2023-03-01T00:28:09;98851.13;;;4.88;100.00
29733;BME280;16643;43.158;25.302;2023-03-01T00:30:34;98841.66;;;4.80;100.00
29733;BME280;16643;43.158;25.302;2023-03-01T00:32:59;98845.97;;;4.82;100.00
29733;BME280;16643;43.158;25.302;2023-03-01T00:35:25;98844.22;;;4.81;100.00
29733;BME280;16643;43.158;25.302;2023-03-01T00:37:50;98844.25;;;4.83;100.00
29733;BME280;16643;43.158;25.302;2023-03-01T00:40:23;98846.81;;;4.81;100.00
29733;BME280;16643;43.158;25.302;2023-03-01T00:42:49;98835.69;;;4.93;100.00
29733;BME280;16643;43.158;25.302;2023-03-01T00:45:14;98833.09;;;4.88;100.00
29733;BME280;16643;43.158;25.302;2023-03-01T00:47:40;98831.38;;;4.86;100.00
29733;BME280;16643;43.158;25.302;2023-03-01T00:50:05;98818.47;;;4.78;100.00
29733;BME280;16643;43.158;25.302;2023-03-01T00:52:31;98822.78;;;4.82;100.00
29733;BME280;16643;43.158;25.302;2023-03-01T00:54:56;98814.22;;;4.85;100.00
29733;BME280;16643;43.158;25.302;2023-03-01T00:57:23;98806.44;;;4.79;100.00
29733;BME280;16643;43.158;25.302;2023-03-01T00:59:48;98796.16;;;4.80;100.00
29733;BME280;16643;43.158;25.302;2023-03-01T01:02:14;98792.72;;;4.77;100.00
29733;BME280;16643;43.158;25.302;2023-03-01T01:04:40;98791.84;;;4.70;100.00
29733;BME280;16643;43.158;25.302;2023-03-01T01:07:05;98780.69;;;4.74;100.00
29733;BME280;16643;43.158;25.302;2023-03-01T01:09:31;98786.72;;;4.73;100.00
29733;BME280;16643;43.158;25.302;2023-03-01T01:11:56;98783.28;;;4.79;100.00
29733;BME280;16643;43.158;25.302;2023-03-01T01:14:22;98793.56;;;4.79;100.00
29733;BME280;16643;43.158;25.302;2023-03-01T01:16:47;98783.31;;;4.83;100.00
29733;BME280;16643;43.158;25.302;2023-03-01T01:19:13;98788.44;;;4.80;100.00
29733;BME280;16643;43.158;25.302;2023-03-01T01:21:38;98783.31;;;4.85;100.00
29733;BME280;16643;43.158;25.302;2023-03-01T01:24:04;98783.31;;;4.83;100.00
29733;BME280;16643;43.158;25.302;2023-03-01T01:26:31;98780.75;;;4.92;100.00
29733;BME280;16643;43.158;25.302;2023-03-01T01:28:57;98782.47;;;4.98;100.00
29733;BME280;16643;43.158;25.302;2023-03-01T01:31:23;98783.34;;;4.94;100.00
29733;BME280;16643;43.158;25.302;2023-03-01T01:33:49;98791.91;;;4.88;100.00
29733;BME280;16643;43.158;25.302;2023-03-01T01:36:15;98795.34;;;4.90;100.00
29733;BME280;16643;43.158;25.302;2023-03-01T01:38:41;98797.09;;;4.96;100.00
29733;BME280;16643;43.158;25.302;2023-03-01T01:41:07;98800.47;;;4.86;100.00
29733;BME280;16643;43.158;25.302;2023-03-01T01:43:36;98798.78;;;4.94;100.00
29733;BME280;16643;43.158;25.302;2023-03-01T01:46:22;98798.78;;;4.94;100.00
29733;BME280;16643;43.158;25.302;2023-03-01T01:48:55;98800.50;;;4.93;100.00
29733;BME280;16643;43.158;25.302;2023-03-01T01:51:23;98791.06;;;4.91;100.00
29733;BME280;16643;43.158;25.302;2023-03-01T01:53:51;98792.78;;;4.95;100.00
29733;BME280;16643;43.158;25.302;2023-03-01T01:56:18;98791.94;;;4.96;100.00
29733;BME280;16643;43.158;25.302;2023-03-01T01:58:44;98792.81;;;5.04;100.00
29733;BME280;16643;43.158;25.302;2023-03-01T02:01:10;98791.13;;;5.14;100.00
29733;BME280;16643;43.158;25.302;2023-03-01T02:03:37;98786.81;;;5.06;100.00
29733;BME280;16643;43.158;25.302;2023-03-01T02:06:18;98793.69;;;5.10;100.00
29733;BME280;16643;43.158;25.302;2023-03-01T02:08:44;98785.97;;;5.14;100.00
29733;BME280;16643;43.158;25.302;2023-03-01T02:11:11;98783.41;;;5.18;100.00
29733;BME280;16643;43.158;25.302;2023-03-01T02:13:39;98780.81;;;5.12;100.00
29733;BME280;16643;43.158;25.302;2023-03-01T02:16:08;98780.78;;;5.10;100.00
29733;BME280;16643;43.158;25.302;2023-03-01T02:18:34;98783.41;;;5.24;100.00
29733;BME280;16643;43.158;25.302;2023-03-01T02:21:13;98788.56;;;5.26;100.00
29733;BME280;16643;43.158;25.302;2023-03-01T02:23:41;98792.00;;;5.19;100.00
29733;BME280;16643;43.158;25.302;2023-03-01T02:28:35;98792.03;;;5.38;100.00
29733;BME280;16643;43.158;25.302;2023-03-01T02:31:01;98792.03;;;5.40;100.00
29733;BME280;16643;43.158;25.302;2023-03-01T02:33:46;98787.72;;;5.37;100.00
29733;BME280;16643;43.158;25.302;2023-03-01T02:36:20;98792.91;;;5.40;100.00
29733;BME280;16643;43.158;25.302;2023-03-01T02:38:47;98788.59;;;5.42;100.00
29733;BME280;16643;43.158;25.302;2023-03-01T02:41:14;98794.59;;;5.46;100.00
29733;BME280;16643;43.158;25.302;2023-03-01T02:43:40;98787.72;;;5.43;100.00
29733;BME280;16643;43.158;25.302;2023-03-01T02:46:06;98780.00;;;5.39;100.00
29733;BME280;16643;43.158;25.302;2023-03-01T02:48:48;98777.41;;;5.33;100.00
29733;BME280;16643;43.158;25.302;2023-03-01T02:56:29;98779.97;;;5.18;100.00
29733;BME280;16643;43.158;25.302;2023-03-01T02:58:55;98783.41;;;5.15;100.00
29733;BME280;16643;43.158;25.302;2023-03-01T03:01:26;98773.13;;;5.27;100.00
29733;BME280;16643;43.158;25.302;2023-03-01T03:04:20;98773.13;;;5.27;100.00
29733;BME280;16643;43.158;25.302;2023-03-01T03:06:49;98786.03;;;5.38;100.00
29733;BME280;16643;43.158;25.302;2023-03-01T03:09:14;98780.84;;;5.53;100.00
29733;BME280;16643;43.158;25.302;2023-03-01T03:11:40;98767.97;;;5.53;100.00
29733;BME280;16643;43.158;25.302;2023-03-01T03:14:10;98771.44;;;5.60;100.00
29733;BME280;16643;43.158;25.302;2023-03-01T03:16:44;98771.41;;;5.58;100.00
29733;BME280;16643;43.158;25.302;2023-03-01T03:19:10;98782.59;;;5.59;100.00
29733;BME280;16643;43.158;25.302;2023-03-01T03:21:36;98783.44;;;5.56;100.00
29733;BME280;16643;43.158;25.302;2023-03-01T03:24:02;98781.72;;;5.54;100.00
29733;BME280;16643;43.158;25.302;2023-03-01T03:26:27;98771.41;;;5.58;100.00
29733;BME280;16643;43.158;25.302;2023-03-01T03:28:53;98770.56;;;5.58;100.00
29733;BME280;16643;43.158;25.302;2023-03-01T03:31:19;98767.13;;;5.57;100.00
29733;BME280;16643;43.158;25.302;2023-03-01T03:33:44;98764.56;;;5.62;100.00
29733;BME280;16643;43.158;25.302;2023-03-01T03:36:09;98780.00;;;5.66;100.00
29733;BME280;16643;43.158;25.302;2023-03-01T03:38:43;98784.31;;;5.69;100.00
29733;BME280;16643;43.158;25.302;2023-03-01T03:41:08;98774.88;;;5.75;100.00
29733;BME280;16643;43.158;25.302;2023-03-01T03:43:35;98780.03;;;5.83;100.00
29733;BME280;16643;43.158;25.302;2023-03-01T03:46:01;98779.13;;;5.87;100.00
29733;BME280;16643;43.158;25.302;2023-03-01T03:48:31;98770.56;;;5.88;100.00
29733;BME280;16643;43.158;25.302;2023-03-01T03:50:56;98785.19;;;5.89;100.00
29733;BME280;16643;43.158;25.302;2023-03-01T03:53:23;98779.19;;;5.89;100.00
29733;BME280;16643;43.158;25.302;2023-03-01T03:55:49;98774.88;;;5.91;100.00
29733;BME280;16643;43.158;25.302;2023-03-01T03:58:15;98777.47;;;5.94;100.00
29733;BME280;16643;43.158;25.302;2023-03-01T04:00:42;98777.47;;;5.95;100.00
29733;BME280;16643;43.158;25.302;2023-03-01T04:03:27;98779.19;;;5.90;100.00
29733;BME280;16643;43.158;25.302;2023-03-01T04:05:53;98774.03;;;5.89;100.00
29733;BME280;16643;43.158;25.302;2023-03-01T04:08:19;98781.75;;;5.84;100.00
29733;BME280;16643;43.158;25.302;2023-03-01T04:10:47;98778.28;;;5.77;100.00
29733;BME280;16643;43.158;25.302;2023-03-01T04:13:13;98767.13;;;5.78;100.00
29733;BME280;16643;43.158;25.302;2023-03-01T04:15:40;98764.56;;;5.62;100.00
29733;BME280;16643;43.158;25.302;2023-03-01T04:18:05;98768.00;;;5.64;100.00
29733;BME280;16643;43.158;25.302;2023-03-01T04:20:32;98772.28;;;5.57;100.00
29733;BME280;16643;43.158;25.302;2023-03-01T04:23:16;98767.13;;;5.62;100.00
29733;BME280;16643;43.158;25.302;2023-03-01T04:25:54;98777.44;;;5.46;100.00
29733;BME280;16643;43.158;25.302;2023-03-01T04:28:30;98768.81;;;5.34;100.00
29733;BME280;16643;43.158;25.302;2023-03-01T04:30:56;98777.41;;;5.36;100.00
29733;BME280;16643;43.158;25.302;2023-03-01T04:33:22;98770.53;;;5.27;100.00
29733;BME280;16643;43.158;25.302;2023-03-01T04:35:48;98761.94;;;5.25;100.00
29733;BME280;16643;43.158;25.302;2023-03-01T04:38:14;98766.25;;;5.19;100.00
29733;BME280;16643;43.158;25.302;2023-03-01T04:40:40;98773.97;;;5.25;100.00
29733;BME280;16643;43.158;25.302;2023-03-01T04:43:08;98777.41;;;5.28;100.00
29733;BME280;16643;43.158;25.302;2023-03-01T04:45:34;98780.00;;;5.39;100.00
29733;BME280;16643;43.158;25.302;2023-03-01T04:47:59;98773.13;;;5.38;100.00
29733;BME280;16643;43.158;25.302;2023-03-01T04:50:25;98779.13;;;5.43;100.00
29733;BME280;16643;43.158;25.302;2023-03-01T04:52:51;98773.09;;;5.33;100.00
29733;BME280;16643;43.158;25.302;2023-03-01T04:55:17;98782.53;;;5.22;100.00
29733;BME280;16643;43.158;25.302;2023-03-01T04:57:42;98781.69;;;5.25;100.00
29733;BME280;16643;43.158;25.302;2023-03-01T05:00:09;98776.56;;;5.38;100.00
29733;BME280;16643;43.158;25.302;2023-03-01T05:02:45;98778.28;;;5.29;100.00
29733;BME280;16643;43.158;25.302;2023-03-01T05:05:11;98773.97;;;5.25;100.00
29733;BME280;16643;43.158;25.302;2023-03-01T05:07:36;98772.28;;;5.30;100.00
29733;BME280;16643;43.158;25.302;2023-03-01T05:10:02;98774.84;;;5.28;100.00
29733;BME280;16643;43.158;25.302;2023-03-01T05:12:27;98779.97;;;5.21;100.00
29733;BME280;16643;43.158;25.302;2023-03-01T05:14:53;98779.94;;;5.13;100.00
29733;BME280;16643;43.158;25.302;2023-03-01T05:17:18;98781.66;;;5.05;100.00
29733;BME280;16643;43.158;25.302;2023-03-01T05:19:43;98783.38;;;5.07;100.00
29733;BME280;16643;43.158;25.302;2023-03-01T05:22:09;98781.66;;;5.13;100.00
29733;BME280;16643;43.158;25.302;2023-03-01T05:24:35;98783.38;;;5.14;100.00
29733;BME280;16643;43.158;25.302;2023-03-01T05:27:01;98779.09;;;5.20;100.00
29733;BME280;16643;43.158;25.302;2023-03-01T05:29:27;98770.50;;;5.20;100.00
29733;BME280;16643;43.158;25.302;2023-03-01T05:31:56;98775.69;;;5.33;100.00
29733;BME280;16643;43.158;25.302;2023-03-01T05:34:30;98781.72;;;5.28;100.00
29733;BME280;16643;43.158;25.302;2023-03-01T05:36:56;98777.41;;;5.28;100.00
29733;BME280;16643;43.158;25.302;2023-03-01T05:39:22;98773.09;;;5.15;100.00
29733;BME280;16643;43.158;25.302;2023-03-01T05:41:51;98774.81;;;5.15;100.00
29733;BME280;16643;43.158;25.302;2023-03-01T05:44:16;98773.94;;;5.22;100.00
29733;BME280;16643;43.158;25.302;2023-03-01T05:46:42;98779.97;;;5.24;100.00
29733;BME280;16643;43.158;25.302;2023-03-01T05:49:07;98782.56;;;5.31;100.00
29733;BME280;16643;43.158;25.302;2023-03-01T05:51:33;98773.16;;;5.41;100.00
29733;BME280;16643;43.158;25.302;2023-03-01T05:53:59;98775.72;;;5.41;100.00
29733;BME280;16643;43.158;25.302;2023-03-01T05:56:24;98786.03;;;5.48;100.00
29733;BME280;16643;43.158;25.302;2023-03-01T05:58:49;98780.88;;;5.59;100.00
29733;BME280;16643;43.158;25.302;2023-03-01T06:01:15;98786.88;;;5.58;100.00
29733;BME280;16643;43.158;25.302;2023-03-01T06:03:41;98776.56;;;5.58;100.00
29733;BME280;16643;43.158;25.302;2023-03-01T06:06:06;98783.44;;;5.55;100.00
29733;BME280;16643;43.158;25.302;2023-03-01T06:08:32;98792.06;;;5.51;100.00
29733;BME280;16643;43.158;25.302;2023-03-01T06:10:57;98786.03;;;5.41;100.00
29733;BME280;16643;43.158;25.302;2023-03-01T06:13:23;98791.16;;;5.36;100.00
29733;BME280;16643;43.158;25.302;2023-03-01T06:15:49;98792.88;;;5.42;100.00
29733;BME280;16643;43.158;25.302;2023-03-01T06:18:14;98792.03;;;5.37;100.00
29733;BME280;16643;43.158;25.302;2023-03-01T06:20:39;98785.16;;;5.39;100.00
29733;BME280;16643;43.158;25.302;2023-03-01T06:23:05;98779.97;;;5.31;100.00
29733;BME280;16643;43.158;25.302;2023-03-01T06:25:31;98781.72;;;5.34;100.00
29733;BME280;16643;43.158;25.302;2023-03-01T06:27:57;98780.00;;;5.43;100.00
29733;BME280;16643;43.158;25.302;2023-03-01T06:30:23;98786.00;;;5.45;100.00
29733;BME280;16643;43.158;25.302;2023-03-01T06:32:49;98790.28;;;5.27;100.00
29733;BME280;16643;43.158;25.302;2023-03-01T06:35:15;98795.47;;;5.37;100.00
29733;BME280;16643;43.158;25.302;2023-03-01T06:37:43;98796.34;;;5.48;100.00
29733;BME280;16643;43.158;25.302;2023-03-01T06:40:09;98802.34;;;5.41;100.00
29733;BME280;16643;43.158;25.302;2023-03-01T06:42:36;98793.75;;;5.45;100.00
29733;BME280;16643;43.158;25.302;2023-03-01T06:45:02;98790.28;;;5.42;100.00
29733;BME280;16643;43.158;25.302;2023-03-01T06:47:28;98795.47;;;5.39;100.00
29733;BME280;16643;43.158;25.302;2023-03-01T06:49:54;98799.75;;;5.28;100.00
29733;BME280;16643;43.158;25.302;2023-03-01T06:52:19;98808.31;;;5.24;100.00
29733;BME280;16643;43.158;25.302;2023-03-01T06:54:45;98807.47;;;5.25;100.00
29733;BME280;16643;43.158;25.302;2023-03-01T06:57:10;98803.16;;;5.31;100.00
29733;BME280;16643;43.158;25.302;2023-03-01T06:59:36;98806.66;;;5.41;100.00
29733;BME280;16643;43.158;25.302;2023-03-01T07:02:01;98806.63;;;5.44;100.00
29733;BME280;16643;43.158;25.302;2023-03-01T07:04:26;98804.03;;;5.42;100.00
29733;BME280;16643;43.158;25.302;2023-03-01T07:06:53;98810.06;;;5.28;100.00
29733;BME280;16643;43.158;25.302;2023-03-01T07:09:23;98810.88;;;5.13;100.00
29733;BME280;16643;43.158;25.302;2023-03-01T07:11:49;98804.03;;;5.26;100.00
29733;BME280;16643;43.158;25.302;2023-03-01T07:14:15;98815.16;;;5.20;100.00
29733;BME280;16643;43.158;25.302;2023-03-01T07:16:40;98809.19;;;5.32;100.00
29733;BME280;16643;43.158;25.302;2023-03-01T07:19:06;98806.59;;;5.26;100.00
29733;BME280;16643;43.158;25.302;2023-03-01T07:21:31;98809.19;;;5.24;100.00
29733;BME280;16643;43.158;25.302;2023-03-01T07:23:57;98798.88;;;5.18;100.00
29733;BME280;16643;43.158;25.302;2023-03-01T07:26:22;98810.00;;;5.14;100.00
29733;BME280;16643;43.158;25.302;2023-03-01T07:28:48;98805.75;;;5.25;100.00
29733;BME280;16643;43.158;25.302;2023-03-01T07:31:13;98812.63;;;5.35;100.00
29733;BME280;16643;43.158;25.302;2023-03-01T07:33:39;98811.78;;;5.35;100.00
29733;BME280;16643;43.158;25.302;2023-03-01T07:36:05;98809.19;;;5.26;100.00
29733;BME280;16643;43.158;25.302;2023-03-01T07:38:30;98809.16;;;5.20;100.00
29733;BME280;16643;43.158;25.302;2023-03-01T07:40:59;98810.88;;;5.22;100.00
29733;BME280;16643;43.158;25.302;2023-03-01T07:43:26;98806.56;;;5.20;100.00
29733;BME280;16643;43.158;25.302;2023-03-01T07:45:52;98800.59;;;5.25;100.00
29733;BME280;16643;43.158;25.302;2023-03-01T07:48:17;98800.59;;;5.28;100.00
29733;BME280;16643;43.158;25.302;2023-03-01T07:50:43;98802.31;;;5.31;100.00
29733;BME280;16643;43.158;25.302;2023-03-01T07:53:09;98803.16;;;5.16;100.00
29733;BME280;16643;43.158;25.302;2023-03-01T07:55:34;98801.41;;;5.06;100.00
29733;BME280;16643;43.158;25.302;2023-03-01T07:57:59;98801.44;;;5.17;100.00
29733;BME280;16643;43.158;25.302;2023-03-01T08:00:25;98804.03;;;5.18;100.00
29733;BME280;16643;43.158;25.302;2023-03-01T08:02:50;98813.47;;;5.16;100.00
29733;BME280;16643;43.158;25.302;2023-03-01T08:05:16;98812.59;;;5.22;100.00
29733;BME280;16643;43.158;25.302;2023-03-01T08:07:41;98810.00;;;5.20;100.00
29733;BME280;16643;43.158;25.302;2023-03-01T08:10:07;98806.59;;;5.15;100.00
29733;BME280;16643;43.158;25.302;2023-03-01T08:12:32;98804.00;;;5.07;100.00
29733;BME280;16643;43.158;25.302;2023-03-01T08:14:58;98803.09;;;4.99;100.00
29733;BME280;16643;43.158;25.302;2023-03-01T08:17:26;98808.25;;;4.96;100.00
29733;BME280;16643;43.158;25.302;2023-03-01T08:19:52;98803.09;;;5.01;100.00
29733;BME280;16643;43.158;25.302;2023-03-01T08:22:17;98797.09;;;4.96;100.00
29733;BME280;16643;43.158;25.302;2023-03-01T08:24:43;98796.19;;;4.91;100.00
29733;BME280;16643;43.158;25.302;2023-03-01T08:27:08;98795.34;;;4.90;100.00
29733;BME280;16643;43.158;25.302;2023-03-01T08:29:34;98796.25;;;5.09;100.00
29733;BME280;16643;43.158;25.302;2023-03-01T08:31:59;98800.56;;;5.07;100.00
29733;BME280;16643;43.158;25.302;2023-03-01T08:34:25;98802.28;;;5.13;100.00
29733;BME280;16643;43.158;25.302;2023-03-01T08:36:51;98802.31;;;5.17;100.00
29733;BME280;16643;43.158;25.302;2023-03-01T08:39:17;98816.03;;;5.21;100.00
29733;BME280;16643;43.158;25.302;2023-03-01T08:41:44;98808.34;;;5.28;100.00
29733;BME280;16643;43.158;25.302;2023-03-01T08:44:10;98800.53;;;5.04;100.00
29733;BME280;16643;43.158;25.302;2023-03-01T08:46:37;98801.41;;;5.09;100.00
29733;BME280;16643;43.158;25.302;2023-03-01T08:49:04;98808.31;;;5.19;100.00
29733;BME280;16643;43.158;25.302;2023-03-01T08:51:30;98808.34;;;5.27;100.00
29733;BME280;16643;43.158;25.302;2023-03-01T08:53:57;98799.72;;;5.25;100.00
29733;BME280;16643;43.158;25.302;2023-03-01T08:56:23;98804.00;;;5.23;100.00
29733;BME280;16643;43.158;25.302;2023-03-01T08:58:48;98810.88;;;5.21;100.00
29733;BME280;16643;43.158;25.302;2023-03-01T09:01:15;98810.00;;;5.20;100.00
29733;BME280;16643;43.158;25.302;2023-03-01T09:03:42;98812.59;;;5.23;100.00
29733;BME280;16643;43.158;25.302;2023-03-01T09:06:08;98814.34;;;5.36;100.00
29733;BME280;16643;43.158;25.302;2023-03-01T09:08:40;98805.78;;;5.40;100.00
29733;BME280;16643;43.158;25.302;2023-03-01T09:11:06;98804.94;;;5.51;100.00
29733;BME280;16643;43.158;25.302;2023-03-01T09:13:32;98805.78;;;5.50;100.00
29733;BME280;16643;43.158;25.302;2023-03-01T09:15:58;98798.03;;;5.42;100.00
29733;BME280;16643;43.158;25.302;2023-03-01T09:18:24;98814.41;;;5.50;100.00
29733;BME280;16643;43.158;25.302;2023-03-01T09:20:49;98810.94;;;5.56;100.00
29733;BME280;16643;43.158;25.302;2023-03-01T09:23:14;98804.06;;;5.55;100.00
29733;BME280;16643;43.158;25.302;2023-03-01T09:25:40;98807.50;;;5.55;100.00
29733;BME280;16643;43.158;25.302;2023-03-01T09:28:05;98803.22;;;5.39;100.00
29733;BME280;16643;43.158;25.302;2023-03-01T09:30:31;98806.66;;;5.47;100.00
29733;BME280;16643;43.158;25.302;2023-03-01T09:32:56;98805.78;;;5.57;100.00
29733;BME280;16643;43.158;25.302;2023-03-01T09:35:22;98797.22;;;5.63;100.00
29733;BME280;16643;43.158;25.302;2023-03-01T09:37:48;98800.66;;;5.74;100.00
29733;BME280;16643;43.158;25.302;2023-03-01T09:40:16;98796.38;;;5.74;100.00
29733;BME280;16643;43.158;25.302;2023-03-01T09:43:02;98792.06;;;5.86;100.00
29733;BME280;16643;43.158;25.302;2023-03-01T09:45:33;98785.22;;;5.95;100.00
29733;BME280;16643;43.158;25.302;2023-03-01T09:48:00;98785.16;;;5.78;100.00
29733;BME280;16643;43.158;25.302;2023-03-01T09:50:26;98787.78;;;5.74;100.00
29733;BME280;16643;43.158;25.302;2023-03-01T09:53:03;98793.78;;;5.61;100.00
29733;BME280;16643;43.158;25.302;2023-03-01T09:55:32;98786.03;;;5.65;100.00
29733;BME280;16643;43.158;25.302;2023-03-01T10:00:30;98786.91;;;5.73;100.00
29733;BME280;16643;43.158;25.302;2023-03-01T10:05:34;98795.53;;;6.07;100.00
29733;BME280;16643;43.158;25.302;2023-03-01T10:08:05;98793.78;;;6.11;100.00
29733;BME280;16643;43.158;25.302;2023-03-01T10:10:39;98786.94;;;5.98;100.00
29733;BME280;16643;43.158;25.302;2023-03-01T10:13:15;98791.22;;;5.74;100.00
29733;BME280;16643;43.158;25.302;2023-03-01T10:15:49;98783.47;;;5.88;100.00
29733;BME280;16643;43.158;25.302;2023-03-01T10:18:20;98791.22;;;6.03;100.00
29733;BME280;16643;43.158;25.302;2023-03-01T10:20:57;98771.41;;;6.13;100.00
29733;BME280;16643;43.158;25.302;2023-03-01T10:23:24;98775.69;;;6.26;100.00
29733;BME280;16643;43.158;25.302;2023-03-01T10:29:00;98771.38;;;6.36;100.00
29733;BME280;16643;43.158;25.302;2023-03-01T10:31:18;98760.13;;;6.44;100.00
29733;BME280;16643;43.158;25.302;2023-03-01T10:33:47;98760.13;;;6.47;100.00
29733;BME280;16643;43.158;25.302;2023-03-01T10:36:16;98764.41;;;6.57;100.00
29733;BME280;16643;43.158;25.302;2023-03-01T10:38:55;98768.72;;;6.59;100.00
29733;BME280;16643;43.158;25.302;2023-03-01T10:41:22;98763.59;;;6.52;100.00
29733;BME280;16643;43.158;25.302;2023-03-01T10:43:52;98760.09;;;6.64;100.00
29733;BME280;16643;43.158;25.302;2023-03-01T10:46:35;98755.75;;;6.66;100.00
29733;BME280;16643;43.158;25.302;2023-03-01T10:49:17;98747.13;;;6.76;100.00
29733;BME280;16643;43.158;25.302;2023-03-01T10:51:45;98743.78;;;6.53;100.00
29733;BME280;16643;43.158;25.302;2023-03-01T10:54:18;98742.09;;;6.43;100.00
29733;BME280;16643;43.158;25.302;2023-03-01T10:57:03;98745.56;;;6.24;100.00
29733;BME280;16643;43.158;25.302;2023-03-01T10:59:33;98737.84;;;6.27;100.00
29733;BME280;16643;43.158;25.302;2023-03-01T11:07:53;98725.81;;;6.18;100.00
29733;BME280;16643;43.158;25.302;2023-03-01T11:10:20;98727.56;;;6.07;100.00
29733;BME280;16643;43.158;25.302;2023-03-01T11:12:46;98725.03;;;5.98;100.00
29733;BME280;16643;43.158;25.302;2023-03-01T11:15:25;98720.72;;;5.92;100.00
29733;BME280;16643;43.158;25.302;2023-03-01T11:17:52;98720.69;;;5.80;100.00
29733;BME280;16643;43.158;25.302;2023-03-01T11:20:52;98727.59;;;5.73;100.00
29733;BME280;16643;43.158;25.302;2023-03-01T11:23:13;98706.09;;;5.82;100.00
29733;BME280;16643;43.158;25.302;2023-03-01T11:25:40;98721.56;;;5.90;100.00
29733;BME280;16643;43.158;25.302;2023-03-01T11:28:07;98711.25;;;5.91;100.00
29733;BME280;16643;43.158;25.302;2023-03-01T11:30:55;98712.09;;;6.07;100.00
29733;BME280;16643;43.158;25.302;2023-03-01T11:38:34;98701.66;;;6.39;100.00
29733;BME280;16643;43.158;25.302;2023-03-01T11:49:02;98697.31;;;6.53;100.00
29733;BME280;16643;43.158;25.302;2023-03-01T11:57:36;98686.13;;;6.43;100.00
29733;BME280;16643;43.158;25.302;2023-03-01T12:10:12;98676.69;;;6.42;100.00
29733;BME280;16643;43.158;25.302;2023-03-01T12:22:56;98669.94;;;6.06;100.00
29733;BME280;16643;43.158;25.302;2023-03-01T12:25:38;98661.31;;;6.13;100.00
29733;BME280;16643;43.158;25.302;2023-03-01T12:31:11;98665.59;;;6.21;100.00
29733;BME280;16643;43.158;25.302;2023-03-01T12:33:38;98667.25;;;6.37;100.00
29733;BME280;16643;43.158;25.302;2023-03-01T12:38:49;98661.31;;;6.19;100.00
29733;BME280;16643;43.158;25.302;2023-03-01T12:41:38;98661.34;;;6.07;100.00
29733;BME280;16643;43.158;25.302;2023-03-01T12:49:28;98664.75;;;6.17;100.00
29733;BME280;16643;43.158;25.302;2023-03-01T12:51:59;98660.44;;;6.14;100.00
29733;BME280;16643;43.158;25.302;2023-03-01T12:54:27;98658.78;;;6.06;100.00
29733;BME280;16643;43.158;25.302;2023-03-01T12:56:53;98664.81;;;5.93;100.00
29733;BME280;16643;43.158;25.302;2023-03-01T12:59:39;98662.25;;;5.85;100.00
29733;BME280;16643;43.158;25.302;2023-03-01T13:07:25;98658.81;;;5.86;100.00
29733;BME280;16643;43.158;25.302;2023-03-01T13:10:16;98657.09;;;5.87;100.00
29733;BME280;16643;43.158;25.302;2023-03-01T13:17:47;98652.72;;;6.17;100.00
29733;BME280;16643;43.158;25.302;2023-03-01T13:20:14;98660.34;;;6.37;100.00
29733;BME280;16643;43.158;25.302;2023-03-01T13:22:40;98667.25;;;6.40;100.00
29733;BME280;16643;43.158;25.302;2023-03-01T13:25:15;98665.47;;;6.46;100.00
29733;BME280;16643;43.158;25.302;2023-03-01T13:27:41;98664.66;;;6.40;100.00
29733;BME280;16643;43.158;25.302;2023-03-01T13:32:51;98656.91;;;6.40;100.00
29733;BME280;16643;43.158;25.302;2023-03-01T13:37:45;98649.19;;;6.37;100.00
29733;BME280;16643;43.158;25.302;2023-03-01T13:42:53;98656.91;;;6.41;100.00
29733;BME280;16643;43.158;25.302;2023-03-01T13:45:20;98650.03;;;6.33;100.00
29733;BME280;16643;43.158;25.302;2023-03-01T13:47:47;98653.53;;;6.21;100.00
29733;BME280;16643;43.158;25.302;2023-03-01T13:50:33;98644.94;;;6.25;100.00
29733;BME280;16643;43.158;25.302;2023-03-01T13:53:05;98643.19;;;6.29;100.00
29733;BME280;16643;43.158;25.302;2023-03-01T13:55:40;98634.59;;;6.30;100.00
29733;BME280;16643;43.158;25.302;2023-03-01T13:58:21;98636.31;;;6.29;100.00
29733;BME280;16643;43.158;25.302;2023-03-01T14:00:47;98637.16;;;6.30;100.00
29733;BME280;16643;43.158;25.302;2023-03-01T14:03:13;98636.31;;;6.31;100.00
29733;BME280;16643;43.158;25.302;2023-03-01T14:05:40;98631.97;;;6.33;100.00
29733;BME280;16643;43.158;25.302;2023-03-01T14:08:17;98637.97;;;6.39;100.00
29733;BME280;16643;43.158;25.302;2023-03-01T14:10:46;98637.06;;;6.43;100.00
29733;BME280;16643;43.158;25.302;2023-03-01T14:21:21;98625.19;;;6.12;100.00
29733;BME280;16643;43.158;25.302;2023-03-01T14:23:47;98620.88;;;6.20;100.00
29733;BME280;16643;43.158;25.302;2023-03-01T14:26:13;98623.41;;;6.23;100.00
29733;BME280;16643;43.158;25.302;2023-03-01T14:28:45;98621.66;;;6.33;100.00
29733;BME280;16643;43.158;25.302;2023-03-01T14:33:55;98617.44;;;6.13;100.00
29733;BME280;16643;43.158;25.302;2023-03-01T14:36:26;98617.50;;;6.03;100.00